Time;durP1;ratioP1;P1;durP2;ratioP2;P2;SDS_P1;SDS_P2;PMS_P1;PMS_P2;Temp;Humidity;BMP_temperature;BMP_pressure;BME280_temperature;BME280_humidity;BME280_pressure;Samples;Min_cycle;Max_cycle;Signal;HPM_P1;HPM_P2
2023/04/15 00:00:41;;;;;;;;;;;19.10;64.20;;;;;;4974065;28;842;-69
2023/04/15 00:03:07;;;;;;;;;;;19.10;64.30;;;;;;4972881;28;977;-70
2023/04/15 00:05:32;;;;;;;;;;;19.10;64.30;;;;;;4972782;28;917;-69
2023/04/15 00:07:58;;;;;;;;;;;19.10;64.40;;;;;;4972575;28;1378;-69
2023/04/15 00:10:24;;;;;;;;;;;19.10;64.40;;;;;;4973741;28;868;-69
2023/04/15 00:12:50;;;;;;;;;;;19.10;64.40;;;;;;4974193;28;991;-69
2023/04/15 00:15:15;;;;;;;;;;;19.10;64.70;;;;;;4972567;28;918;-69
2023/04/15 00:17:41;;;;;;;;;;;19.10;64.60;;;;;;4956138;28;1891;-69
2023/04/15 00:20:06;;;;;;;;;;;19.10;64.60;;;;;;4973773;28;1286;-70
2023/04/15 00:22:32;;;;;;;;;;;19.10;64.50;;;;;;4973687;28;894;-70
2023/04/15 00:24:57;;;;;;;;;;;19.10;64.50;;;;;;4973909;28;880;-70
2023/04/15 00:27:23;;;;;;;;;;;19.10;64.60;;;;;;4972759;28;876;-69
2023/04/15 00:29:49;;;;;;;;;;;19.10;64.70;;;;;;4986654;28;1360;-69
2023/04/15 00:32:14;;;;;;;;;;;19.10;64.80;;;;;;4972470;28;966;-68
2023/04/15 00:34:40;;;;;;;;;;;19.00;64.80;;;;;;4972283;28;879;-70
2023/04/15 00:37:05;;;;;;;;;;;19.00;64.90;;;;;;4971747;28;1907;-70
2023/04/15 00:39:31;;;;;;;;;;;19.00;64.80;;;;;;4971245;28;1371;-70
2023/04/15 00:41:56;;;;;;;;;;;19.00;64.90;;;;;;4973487;28;875;-69
2023/04/15 00:44:22;;;;;;;;;;;19.00;64.90;;;;;;4973351;28;848;-70
2023/04/15 00:46:49;;;;;;;;;;;19.00;65.00;;;;;;4972713;28;1234;-68
2023/04/15 00:49:15;;;;;;;;;;;19.00;64.90;;;;;;4972330;28;1689;-69
2023/04/15 00:51:41;;;;;;;;;;;19.00;65.00;;;;;;4972920;28;1327;-69
2023/04/15 00:54:06;;;;;;;;;;;19.00;64.90;;;;;;4972780;28;1191;-68
2023/04/15 00:56:34;;;;;;;;;;;19.00;65.00;;;;;;4970176;28;1950;-69
2023/04/15 00:58:59;;;;;;;;;;;19.00;65.20;;;;;;4986433;28;1390;-69
2023/04/15 01:01:25;;;;;;;;;;;19.00;65.10;;;;;;4972968;28;1415;-69
2023/04/15 01:03:50;;;;;;;;;;;19.00;65.20;;;;;;4971476;28;1672;-70
2023/04/15 01:06:16;;;;;;;;;;;19.10;65.20;;;;;;4971197;28;1414;-70
2023/04/15 01:08:42;;;;;;;;;;;19.10;65.10;;;;;;4970959;28;1387;-70
2023/04/15 01:11:07;;;;;;;;;;;19.10;64.90;;;;;;4970884;28;1416;-69
2023/04/15 01:13:33;;;;;;;;;;;19.10;64.90;;;;;;4971067;28;1384;-70
2023/04/15 01:15:58;;;;;;;;;;;19.10;64.90;;;;;;4971110;28;1890;-69
2023/04/15 01:18:24;;;;;;;;;;;19.10;65.00;;;;;;4970609;28;1426;-70
2023/04/15 01:20:49;;;;;;;;;;;19.00;65.00;;;;;;4970784;28;1387;-70
2023/04/15 01:23:16;;;;;;;;;;;19.00;65.10;;;;;;4972582;28;1586;-72
2023/04/15 01:25:41;;;;;;;;;;;19.00;65.20;;;;;;4969674;28;1393;-70
2023/04/15 01:28:08;;;;;;;;;;;19.00;65.30;;;;;;4971194;28;1370;-69
2023/04/15 01:30:33;;;;;;;;;;;19.00;65.40;;;;;;4982252;28;1303;-69
2023/04/15 01:33:00;;;;;;;;;;;19.00;65.50;;;;;;4973087;28;841;-69
2023/04/15 01:35:25;;;;;;;;;;;19.00;65.50;;;;;;4972988;28;1883;-70
2023/04/15 01:37:51;;;;;;;;;;;18.90;65.50;;;;;;4972675;28;1399;-69
2023/04/15 01:40:16;;;;;;;;;;;18.90;65.60;;;;;;4971774;28;1544;-69
2023/04/15 01:42:42;;;;;;;;;;;18.90;65.60;;;;;;4971667;28;1540;-69
2023/04/15 01:45:08;;;;;;;;;;;18.90;65.70;;;;;;4971545;28;837;-69
2023/04/15 01:47:33;;;;;;;;;;;18.90;65.70;;;;;;4970865;28;958;-69
2023/04/15 01:49:59;;;;;;;;;;;18.90;65.80;;;;;;4970384;28;1178;-69
2023/04/15 01:52:24;;;;;;;;;;;18.90;65.80;;;;;;4971523;28;884;-69
2023/04/15 01:54:50;;;;;;;;;;;18.90;65.80;;;;;;4969298;28;1314;-70
2023/04/15 01:57:16;;;;;;;;;;;18.90;65.80;;;;;;4970371;28;1973;-70
2023/04/15 01:59:41;;;;;;;;;;;18.90;65.70;;;;;;4971838;28;1334;-70
2023/04/15 02:02:07;;;;;;;;;;;18.90;65.80;;;;;;4971519;28;888;-70
2023/04/15 02:04:33;;;;;;;;;;;18.90;65.70;;;;;;4971780;28;880;-70
2023/04/15 02:06:58;;;;;;;;;;;18.90;65.80;;;;;;4971363;28;843;-70
2023/04/15 02:09:24;;;;;;;;;;;18.90;65.70;;;;;;4971756;28;1386;-70
2023/04/15 02:11:50;;;;;;;;;;;18.80;65.60;;;;;;4970733;28;1185;-70
2023/04/15 02:14:16;;;;;;;;;;;18.90;65.70;;;;;;4969835;28;836;-70
2023/04/15 02:16:41;;;;;;;;;;;18.90;65.80;;;;;;4971558;28;1902;-70
2023/04/15 02:19:07;;;;;;;;;;;18.90;65.90;;;;;;4971545;28;1356;-70
2023/04/15 02:21:34;;;;;;;;;;;18.90;65.80;;;;;;4970266;28;1207;-70
2023/04/15 02:24:01;;;;;;;;;;;18.80;65.80;;;;;;4971808;28;926;-69
2023/04/15 02:26:26;;;;;;;;;;;18.80;65.90;;;;;;4970372;28;911;-71
2023/04/15 02:28:52;;;;;;;;;;;18.90;66.10;;;;;;4971155;28;1255;-70
2023/04/15 02:31:17;;;;;;;;;;;18.90;66.20;;;;;;4971132;28;1074;-69
2023/04/15 02:33:43;;;;;;;;;;;18.90;66.30;;;;;;4971721;28;856;-69
2023/04/15 02:36:10;;;;;;;;;;;19.00;66.50;;;;;;4970018;28;1917;-71
2023/04/15 02:38:37;;;;;;;;;;;19.00;66.70;;;;;;4971250;28;1324;-70
2023/04/15 02:41:02;;;;;;;;;;;18.90;66.50;;;;;;4971692;28;844;-70
2023/04/15 02:43:27;;;;;;;;;;;19.00;66.60;;;;;;4971506;28;817;-70
2023/04/15 02:45:53;;;;;;;;;;;19.00;66.50;;;;;;4971184;28;935;-70
2023/04/15 02:48:19;;;;;;;;;;;19.00;66.30;;;;;;4984617;28;1246;-70
2023/04/15 02:50:45;;;;;;;;;;;19.00;66.20;;;;;;4970952;28;935;-70
2023/04/15 02:53:12;;;;;;;;;;;19.00;66.20;;;;;;4971483;28;928;-70
2023/04/15 02:55:37;;;;;;;;;;;19.00;66.10;;;;;;4971389;28;1960;-70
2023/04/15 02:58:03;;;;;;;;;;;19.00;66.00;;;;;;4971059;28;1355;-70
2023/04/15 03:00:28;;;;;;;;;;;19.00;65.90;;;;;;4971103;28;1288;-70
2023/04/15 03:02:57;;;;;;;;;;;19.00;65.80;;;;;;4971244;28;839;-70
2023/04/15 03:05:26;;;;;;;;;;;19.00;65.90;;;;;;4971016;28;898;-70
2023/04/15 03:07:51;;;;;;;;;;;19.00;66.00;;;;;;4970693;28;1314;-70
2023/04/15 03:10:17;;;;;;;;;;;19.00;65.90;;;;;;4970161;28;1061;-70
2023/04/15 03:12:42;;;;;;;;;;;19.00;65.90;;;;;;4971144;28;777;-70
2023/04/15 03:15:08;;;;;;;;;;;19.00;66.00;;;;;;4974078;28;881;-70
2023/04/15 03:17:34;;;;;;;;;;;19.00;65.90;;;;;;4973458;28;1966;-70
2023/04/15 03:20:00;;;;;;;;;;;19.00;65.80;;;;;;4975394;28;1291;-70
2023/04/15 03:22:26;;;;;;;;;;;19.00;65.90;;;;;;4975194;28;1058;-71
2023/04/15 03:24:51;;;;;;;;;;;19.00;65.90;;;;;;4975544;28;801;-70
2023/04/15 03:27:16;;;;;;;;;;;19.00;65.90;;;;;;4974398;28;1291;-70
2023/04/15 03:29:42;;;;;;;;;;;19.00;66.00;;;;;;4973841;28;1275;-70
2023/04/15 03:32:07;;;;;;;;;;;19.00;66.00;;;;;;4973542;28;860;-70
2023/04/15 03:34:33;;;;;;;;;;;18.90;66.10;;;;;;4973572;28;1000;-70
2023/04/15 03:36:58;;;;;;;;;;;19.00;66.20;;;;;;4973199;28;1898;-69
2023/04/15 03:39:24;;;;;;;;;;;18.90;66.20;;;;;;4972316;28;1265;-69
2023/04/15 03:41:49;;;;;;;;;;;18.90;66.20;;;;;;4973519;28;898;-69
2023/04/15 03:44:15;;;;;;;;;;;18.90;66.30;;;;;;4973028;28;946;-69
2023/04/15 03:46:40;;;;;;;;;;;18.90;66.40;;;;;;4985895;28;1551;-69
2023/04/15 03:49:06;;;;;;;;;;;18.90;66.40;;;;;;4973106;28;1287;-70
2023/04/15 03:51:31;;;;;;;;;;;18.90;66.50;;;;;;4972139;28;914;-69
2023/04/15 03:53:57;;;;;;;;;;;18.90;66.40;;;;;;4972140;28;966;-69
2023/04/15 03:56:23;;;;;;;;;;;18.90;66.50;;;;;;4971908;28;1898;-70
2023/04/15 03:58:48;;;;;;;;;;;18.90;66.40;;;;;;4971558;28;1369;-69
2023/04/15 04:01:15;;;;;;;;;;;18.90;66.40;;;;;;4972512;28;892;-70
2023/04/15 04:03:40;;;;;;;;;;;18.80;66.40;;;;;;4972777;28;935;-70
2023/04/15 04:06:06;;;;;;;;;;;18.90;66.50;;;;;;4972770;28;926;-70
2023/04/15 04:08:32;;;;;;;;;;;18.90;66.70;;;;;;4972230;28;1379;-69
2023/04/15 04:10:57;;;;;;;;;;;18.90;66.70;;;;;;4972841;28;898;-70
2023/04/15 04:13:23;;;;;;;;;;;18.90;66.70;;;;;;4971329;28;891;-70
2023/04/15 04:15:48;;;;;;;;;;;19.00;66.70;;;;;;4972744;28;1930;-71
2023/04/15 04:18:14;;;;;;;;;;;19.00;66.60;;;;;;4972562;28;1367;-70
2023/04/15 04:20:40;;;;;;;;;;;19.20;66.60;;;;;;4972758;28;834;-70
2023/04/15 04:23:05;;;;;;;;;;;19.20;66.30;;;;;;4971540;28;863;-69
2023/04/15 04:25:31;;;;;;;;;;;19.40;66.30;;;;;;4984909;28;833;-70
2023/04/15 04:27:57;;;;;;;;;;;19.50;66.10;;;;;;4972205;28;1284;-70
2023/04/15 04:30:23;;;;;;;;;;;19.60;65.70;;;;;;4935128;28;1102245;-70
2023/04/15 04:32:48;;;;;;;;;;;19.70;65.00;;;;;;4973934;28;932;-70
2023/04/15 04:35:14;;;;;;;;;;;19.80;64.50;;;;;;4973632;28;950;-69
2023/04/15 04:37:40;;;;;;;;;;;19.90;64.10;;;;;;4973152;28;1915;-69
2023/04/15 04:40:06;;;;;;;;;;;20.00;63.80;;;;;;4973668;28;849;-69
2023/04/15 04:42:32;;;;;;;;;;;20.10;63.60;;;;;;4973450;28;879;-69
2023/04/15 04:44:57;;;;;;;;;;;20.20;63.30;;;;;;4973353;28;880;-69
2023/04/15 04:47:23;;;;;;;;;;;20.30;63.10;;;;;;4973253;28;1483;-69
2023/04/15 04:49:48;;;;;;;;;;;20.40;63.00;;;;;;4973447;28;1351;-69
2023/04/15 04:52:14;;;;;;;;;;;20.50;62.80;;;;;;4972938;28;1010;-68
2023/04/15 04:54:39;;;;;;;;;;;20.50;62.60;;;;;;4972284;28;1355;-69
2023/04/15 04:57:06;;;;;;;;;;;20.60;62.40;;;;;;4973414;28;1919;-69
2023/04/15 04:59:32;;;;;;;;;;;20.70;62.30;;;;;;4972093;28;1668;-69
2023/04/15 05:01:57;;;;;;;;;;;20.70;62.00;;;;;;4973320;28;991;-69
2023/04/15 05:04:23;;;;;;;;;;;20.80;61.90;;;;;;4973733;28;913;-69
2023/04/15 05:06:49;;;;;;;;;;;20.80;61.70;;;;;;4973478;28;996;-70
2023/04/15 05:09:14;;;;;;;;;;;20.90;61.60;;;;;;4973857;28;1256;-70
2023/04/15 05:11:40;;;;;;;;;;;20.90;61.40;;;;;;4973183;28;787;-69
2023/04/15 05:14:05;;;;;;;;;;;21.00;61.20;;;;;;4972550;28;884;-69
2023/04/15 05:16:31;;;;;;;;;;;21.00;60.80;;;;;;4972689;28;1899;-69
2023/04/15 05:18:56;;;;;;;;;;;20.90;60.50;;;;;;4972523;28;1386;-68
2023/04/15 05:21:22;;;;;;;;;;;21.00;60.40;;;;;;4972177;28;1027;-69
2023/04/15 05:23:47;;;;;;;;;;;21.00;60.20;;;;;;4971410;28;1264;-69
2023/04/15 05:26:13;;;;;;;;;;;21.00;60.20;;;;;;4972252;28;1302;-68
2023/04/15 05:28:38;;;;;;;;;;;21.00;60.20;;;;;;4972232;28;1291;-69
2023/04/15 05:31:04;;;;;;;;;;;21.00;60.10;;;;;;4972690;28;1058;-69
2023/04/15 05:33:29;;;;;;;;;;;20.90;60.10;;;;;;4972370;28;885;-70
2023/04/15 05:35:55;;;;;;;;;;;20.90;60.20;;;;;;4971971;28;1965;-70
2023/04/15 05:38:20;;;;;;;;;;;20.90;60.20;;;;;;4970448;28;1493;-70
2023/04/15 05:40:46;;;;;;;;;;;20.90;60.20;;;;;;4972002;28;930;-69
2023/04/15 05:43:11;;;;;;;;;;;20.90;60.30;;;;;;4971936;28;829;-69
2023/04/15 05:45:36;;;;;;;;;;;20.80;60.30;;;;;;4972064;28;880;-70
2023/04/15 05:48:02;;;;;;;;;;;20.80;60.30;;;;;;4972021;28;1343;-70
2023/04/15 05:50:28;;;;;;;;;;;20.80;60.40;;;;;;4971996;28;2115;-72
2023/04/15 05:52:53;;;;;;;;;;;20.80;60.30;;;;;;4973693;28;1566;-72
2023/04/15 05:55:19;;;;;;;;;;;20.80;60.30;;;;;;4973929;28;1319;-73
2023/04/15 05:57:44;;;;;;;;;;;20.80;60.20;;;;;;4973813;28;1966;-74
2023/04/15 06:00:10;;;;;;;;;;;20.80;60.20;;;;;;4974187;28;867;-74
2023/04/15 06:02:35;;;;;;;;;;;20.80;60.10;;;;;;4974244;28;871;-74
2023/04/15 06:05:01;;;;;;;;;;;20.80;60.10;;;;;;4974183;28;860;-74
2023/04/15 06:07:27;;;;;;;;;;;20.80;60.00;;;;;;4973458;28;788;-74
2023/04/15 06:09:52;;;;;;;;;;;20.80;59.80;;;;;;4972828;28;1200;-74
2023/04/15 06:12:18;;;;;;;;;;;20.80;59.70;;;;;;4974190;28;777;-74
2023/04/15 06:14:43;;;;;;;;;;;20.90;59.70;;;;;;4974049;28;880;-74
2023/04/15 06:17:09;;;;;;;;;;;20.90;59.60;;;;;;4971986;28;1950;-73
2023/04/15 06:19:35;;;;;;;;;;;20.90;59.50;;;;;;4973732;28;1253;-73
2023/04/15 06:22:01;;;;;;;;;;;20.90;59.40;;;;;;4972049;28;852;-73
2023/04/15 06:24:26;;;;;;;;;;;20.90;59.30;;;;;;4973482;28;895;-74
2023/04/15 06:26:52;;;;;;;;;;;20.90;59.30;;;;;;4955642;28;1252;-74
2023/04/15 06:29:17;;;;;;;;;;;20.90;59.20;;;;;;4971940;28;1344;-71
2023/04/15 06:31:42;;;;;;;;;;;20.90;59.20;;;;;;4970928;28;954;-71
2023/04/15 06:34:08;;;;;;;;;;;20.90;59.30;;;;;;4970314;28;991;-71
2023/04/15 06:36:34;;;;;;;;;;;21.00;59.50;;;;;;4952945;28;1926;-71
2023/04/15 06:39:00;;;;;;;;;;;21.00;59.60;;;;;;4970067;28;1249;-71
2023/04/15 06:41:25;;;;;;;;;;;21.00;59.70;;;;;;4970557;28;891;-71
2023/04/15 06:43:51;;;;;;;;;;;21.10;59.90;;;;;;4971227;28;1054;-70
2023/04/15 06:46:16;;;;;;;;;;;21.10;59.90;;;;;;4969205;28;1363;-70
2023/04/15 06:48:42;;;;;;;;;;;21.10;60.20;;;;;;4970799;28;1320;-70
2023/04/15 06:51:07;;;;;;;;;;;21.10;60.20;;;;;;4971393;28;864;-72
2023/04/15 06:53:34;;;;;;;;;;;21.10;59.50;;;;;;4954813;28;1466;-71
2023/04/15 06:56:00;;;;;;;;;;;21.10;59.10;;;;;;4971406;28;1906;-72
2023/04/15 06:58:25;;;;;;;;;;;21.10;58.80;;;;;;4971895;28;1487;-72
2023/04/15 07:00:51;;;;;;;;;;;21.10;58.60;;;;;;4972234;28;879;-72
2023/04/15 07:03:17;;;;;;;;;;;21.00;58.50;;;;;;4970052;28;916;-71
2023/04/15 07:05:42;;;;;;;;;;;21.00;58.40;;;;;;4971285;28;850;-72
2023/04/15 07:08:08;;;;;;;;;;;21.00;58.40;;;;;;4970061;28;1264;-71
2023/04/15 07:10:33;;;;;;;;;;;21.00;58.30;;;;;;4984781;28;1327;-72
2023/04/15 07:12:59;;;;;;;;;;;21.00;58.20;;;;;;4958181;28;884;-73
2023/04/15 07:15:25;;;;;;;;;;;21.00;58.20;;;;;;4971227;28;840;-73
2023/04/15 07:17:50;;;;;;;;;;;21.00;58.20;;;;;;4970976;28;1923;-73
2023/04/15 07:20:16;;;;;;;;;;;21.00;58.10;;;;;;4971023;28;812;-73
2023/04/15 07:22:42;;;;;;;;;;;21.00;58.00;;;;;;4972187;28;864;-74
2023/04/15 07:25:08;;;;;;;;;;;21.00;58.00;;;;;;4970474;28;898;-74
2023/04/15 07:27:33;;;;;;;;;;;21.00;58.00;;;;;;4980768;28;1498;-71
2023/04/15 07:29:59;;;;;;;;;;;21.00;58.00;;;;;;4970647;28;1245;-71
2023/04/15 07:32:24;;;;;;;;;;;21.00;57.80;;;;;;4970945;28;943;-71
2023/04/15 07:34:50;;;;;;;;;;;21.00;57.80;;;;;;4969925;28;883;-71
2023/04/15 07:37:16;;;;;;;;;;;21.00;57.80;;;;;;4970344;28;1981;-71
2023/04/15 07:39:42;;;;;;;;;;;21.00;57.80;;;;;;4970523;28;1278;-71
2023/04/15 07:42:08;;;;;;;;;;;21.00;57.80;;;;;;4970989;28;786;-72
2023/04/15 07:44:33;;;;;;;;;;;21.00;57.80;;;;;;4959419;28;1583;-72
2023/04/15 07:47:01;;;;;;;;;;;21.00;57.80;;;;;;4970799;28;890;-71
2023/04/15 07:49:26;;;;;;;;;;;21.10;57.80;;;;;;4970337;28;1242;-72
2023/04/15 07:51:52;;;;;;;;;;;21.00;57.80;;;;;;4971068;28;947;-73
2023/04/15 07:54:17;;;;;;;;;;;21.00;57.80;;;;;;4971129;28;1262;-74
2023/04/15 07:56:43;;;;;;;;;;;21.10;57.80;;;;;;4970944;28;1894;-70
2023/04/15 07:59:08;;;;;;;;;;;21.10;57.90;;;;;;4982518;28;1265;-70
2023/04/15 08:01:34;;;;;;;;;;;21.10;57.70;;;;;;4973037;28;831;-72
2023/04/15 08:04:00;;;;;;;;;;;21.10;57.70;;;;;;4974304;28;840;-72
2023/04/15 08:06:26;;;;;;;;;;;21.10;57.70;;;;;;4973876;28;896;-72
2023/04/15 08:08:53;;;;;;;;;;;21.10;57.60;;;;;;4972698;28;1292;-72
2023/04/15 08:11:21;;;;;;;;;;;21.10;57.70;;;;;;4972400;28;884;-72
2023/04/15 08:13:47;;;;;;;;;;;21.10;57.60;;;;;;4975657;28;905;-72
2023/04/15 08:16:17;;;;;;;;;;;21.10;57.60;;;;;;4975580;28;1898;-74
2023/04/15 08:18:43;;;;;;;;;;;21.10;57.60;;;;;;4972402;28;1587;-73
2023/04/15 08:21:09;;;;;;;;;;;21.10;57.60;;;;;;4973907;28;916;-74
2023/04/15 08:23:34;;;;;;;;;;;21.10;57.60;;;;;;4972944;28;874;-74
2023/04/15 08:26:00;;;;;;;;;;;21.10;57.60;;;;;;4972921;28;1052;-74
2023/04/15 08:28:25;;;;;;;;;;;21.10;57.60;;;;;;4972548;28;1663;-74
2023/04/15 08:30:54;;;;;;;;;;;21.00;57.60;;;;;;4973731;28;804;-74
2023/04/15 08:33:20;;;;;;;;;;;21.00;57.60;;;;;;4973406;28;861;-74
2023/04/15 08:35:46;;;;;;;;;;;21.00;57.60;;;;;;4973544;28;1966;-74
2023/04/15 08:38:11;;;;;;;;;;;20.90;57.70;;;;;;4988471;28;1417;-75
2023/04/15 08:40:40;;;;;;;;;;;20.90;57.70;;;;;;4972671;28;1065;-75
2023/04/15 08:43:06;;;;;;;;;;;20.90;57.80;;;;;;4973117;28;773;-74
2023/04/15 08:45:32;;;;;;;;;;;20.90;57.80;;;;;;4974040;28;830;-74
2023/04/15 08:47:57;;;;;;;;;;;20.80;57.90;;;;;;4974115;28;1262;-73
2023/04/15 08:50:23;;;;;;;;;;;20.80;58.50;;;;;;4974152;28;916;-74
2023/04/15 08:52:48;;;;;;;;;;;20.70;58.00;;;;;;4972373;28;860;-74
2023/04/15 08:55:14;;;;;;;;;;;20.70;58.10;;;;;;4974423;28;1282;-75
2023/04/15 08:57:39;;;;;;;;;;;20.70;58.20;;;;;;4970760;28;1969;-72
2023/04/15 09:00:05;;;;;;;;;;;20.70;58.30;;;;;;4973424;28;1480;-72
2023/04/15 09:02:30;;;;;;;;;;;20.70;58.30;;;;;;4969787;28;1129;-71
2023/04/15 09:04:56;;;;;;;;;;;20.60;58.40;;;;;;4972918;28;896;-71
2023/04/15 09:07:21;;;;;;;;;;;20.60;58.50;;;;;;4972257;28;1261;-71
2023/04/15 09:09:47;;;;;;;;;;;20.60;58.50;;;;;;4973315;28;1374;-71
2023/04/15 09:12:12;;;;;;;;;;;20.60;58.50;;;;;;4971892;28;1490;-71
2023/04/15 09:14:41;;;;;;;;;;;20.50;58.50;;;;;;4972998;28;864;-71
2023/04/15 09:17:07;;;;;;;;;;;20.60;58.60;;;;;;4972465;28;1953;-71
2023/04/15 09:19:33;;;;;;;;;;;20.50;58.60;;;;;;4971353;28;1380;-71
2023/04/15 09:21:59;;;;;;;;;;;20.60;58.70;;;;;;4972811;28;883;-71
2023/04/15 09:24:25;;;;;;;;;;;20.50;58.60;;;;;;4971744;28;1054;-71
2023/04/15 09:26:52;;;;;;;;;;;20.60;58.70;;;;;;4970896;28;900;-71
2023/04/15 09:29:17;;;;;;;;;;;20.60;58.70;;;;;;4970722;28;1346;-71
2023/04/15 09:31:43;;;;;;;;;;;20.50;58.60;;;;;;4972560;28;1667;-71
2023/04/15 09:34:08;;;;;;;;;;;20.50;58.80;;;;;;4972267;28;1010;-72
2023/04/15 09:36:46;;;;;;;;;;;20.50;58.70;;;;;;4970712;28;1906;-71
2023/04/15 09:39:11;;;;;;;;;;;20.50;58.70;;;;;;4970816;28;1264;-72
2023/04/15 09:41:37;;;;;;;;;;;20.50;58.70;;;;;;4970883;28;907;-72
2023/04/15 09:44:03;;;;;;;;;;;20.50;58.70;;;;;;4972017;28;875;-72
2023/04/15 09:46:43;;;;;;;;;;;20.50;58.80;;;;;;4961195;28;1560;-72
2023/04/15 09:49:09;;;;;;;;;;;20.50;58.80;;;;;;4970685;28;1335;-72
2023/04/15 09:51:35;;;;;;;;;;;20.50;58.80;;;;;;4971259;28;898;-72
2023/04/15 09:54:01;;;;;;;;;;;20.50;58.80;;;;;;4972472;28;1266;-72
2023/04/15 09:56:37;;;;;;;;;;;20.50;58.90;;;;;;4971726;28;1903;-72
2023/04/15 09:59:04;;;;;;;;;;;20.50;58.90;;;;;;4969891;28;1264;-71
2023/04/15 10:01:29;;;;;;;;;;;20.50;58.90;;;;;;4970136;28;840;-71
2023/04/15 10:03:55;;;;;;;;;;;20.40;58.90;;;;;;4970666;28;840;-71
2023/04/15 10:06:21;;;;;;;;;;;20.40;58.90;;;;;;4970101;28;915;-71
2023/04/15 10:08:46;;;;;;;;;;;20.40;59.00;;;;;;4969896;28;1257;-71
2023/04/15 10:11:12;;;;;;;;;;;20.40;59.00;;;;;;4970165;28;860;-72
2023/04/15 10:13:38;;;;;;;;;;;20.40;59.00;;;;;;4959650;28;1194;-73
2023/04/15 10:16:05;;;;;;;;;;;20.40;59.00;;;;;;4957550;28;1899;-73
2023/04/15 10:18:31;;;;;;;;;;;20.30;59.00;;;;;;4971540;28;1366;-73
2023/04/15 10:20:56;;;;;;;;;;;20.30;59.10;;;;;;4957069;28;1197;-71
2023/04/15 10:23:23;;;;;;;;;;;20.30;59.10;;;;;;4970124;28;850;-71
2023/04/15 10:25:49;;;;;;;;;;;20.30;59.20;;;;;;4970484;28;1011;-71
2023/04/15 10:28:15;;;;;;;;;;;20.30;59.20;;;;;;4968875;28;1293;-71
2023/04/15 10:30:40;;;;;;;;;;;20.20;59.20;;;;;;4971582;28;842;-71
2023/04/15 10:33:06;;;;;;;;;;;20.20;59.40;;;;;;4971028;28;952;-71
2023/04/15 10:35:32;;;;;;;;;;;20.20;59.40;;;;;;4968253;28;1681;-71
2023/04/15 10:37:58;;;;;;;;;;;20.20;59.40;;;;;;4972467;28;1911;-71
2023/04/15 10:40:28;;;;;;;;;;;20.20;59.50;;;;;;4972013;28;1371;-71
2023/04/15 10:42:57;;;;;;;;;;;20.20;59.50;;;;;;4971365;28;835;-71
2023/04/15 10:45:24;;;;;;;;;;;20.20;59.50;;;;;;4971349;28;930;-72
2023/04/15 10:48:00;;;;;;;;;;;20.20;59.60;;;;;;4969356;28;1386;-71
2023/04/15 10:50:27;;;;;;;;;;;20.10;59.60;;;;;;4969287;28;887;-71
2023/04/15 10:52:52;;;;;;;;;;;20.10;59.70;;;;;;4969860;28;864;-71
2023/04/15 10:55:19;;;;;;;;;;;20.10;59.70;;;;;;4971157;28;1262;-71
2023/04/15 10:57:44;;;;;;;;;;;20.10;59.70;;;;;;4967926;28;2255;-71
2023/04/15 11:00:10;;;;;;;;;;;20.10;59.80;;;;;;4970431;28;1309;-74
2023/04/15 11:02:39;;;;;;;;;;;20.10;59.80;;;;;;4969018;28;1422;-72
2023/04/15 11:05:06;;;;;;;;;;;20.10;59.80;;;;;;4970342;28;860;-73
2023/04/15 11:07:47;;;;;;;;;;;20.10;59.80;;;;;;4971243;28;869;-72
2023/04/15 11:10:12;;;;;;;;;;;20.10;59.80;;;;;;4970356;28;871;-72
2023/04/15 11:12:38;;;;;;;;;;;20.10;59.80;;;;;;4971234;28;1201;-72
2023/04/15 11:15:22;;;;;;;;;;;20.10;59.90;;;;;;4971458;28;1007;-72
2023/04/15 11:17:47;;;;;;;;;;;20.00;59.80;;;;;;4959838;28;1966;-72
2023/04/15 11:20:16;;;;;;;;;;;20.00;59.80;;;;;;4971516;28;943;-77
2023/04/15 11:22:54;;;;;;;;;;;20.10;60.20;;;;;;4956247;28;1235;-75
2023/04/15 11:25:23;;;;;;;;;;;20.00;60.20;;;;;;4969448;28;1256;-76
2023/04/15 11:27:49;;;;;;;;;;;20.00;60.10;;;;;;4971686;28;1374;-75
2023/04/15 11:30:19;;;;;;;;;;;20.00;60.20;;;;;;4970383;28;918;-75
2023/04/15 11:32:45;;;;;;;;;;;20.00;60.20;;;;;;4973309;28;1058;-74
2023/04/15 11:35:10;;;;;;;;;;;20.00;60.20;;;;;;4973972;28;789;-77
2023/04/15 11:37:36;;;;;;;;;;;20.00;60.90;;;;;;4970636;28;2060;-74
2023/04/15 11:40:02;;;;;;;;;;;20.00;60.20;;;;;;4969721;28;1300;-75
2023/04/15 11:42:27;;;;;;;;;;;20.00;60.20;;;;;;4975669;28;851;-76
2023/04/15 11:45:13;;;;;;;;;;;19.90;60.20;;;;;;4977405;28;1059;-77
2023/04/15 11:47:39;;;;;;;;;;;20.00;60.30;;;;;;4996109;28;1253;-77
2023/04/15 11:50:13;;;;;;;;;;;19.90;60.30;;;;;;4977679;28;1269;-74
2023/04/15 11:52:39;;;;;;;;;;;19.90;60.40;;;;;;4971780;28;1370;-76
2023/04/15 11:55:06;;;;;;;;;;;19.90;60.30;;;;;;4976565;28;1329;-74
2023/04/15 11:57:31;;;;;;;;;;;19.90;60.40;;;;;;4975119;28;1958;-76
2023/04/15 11:59:57;;;;;;;;;;;19.90;60.50;;;;;;4973989;28;1646;-75
2023/04/15 12:02:29;;;;;;;;;;;19.90;60.50;;;;;;4975377;28;1423;-74
2023/04/15 12:05:02;;;;;;;;;;;19.80;60.50;;;;;;4975060;28;1404;-74
2023/04/15 12:07:28;;;;;;;;;;;19.80;60.50;;;;;;4973403;28;1412;-74
2023/04/15 12:09:53;;;;;;;;;;;19.80;60.60;;;;;;4974485;28;1558;-75
2023/04/15 12:12:19;;;;;;;;;;;19.80;60.80;;;;;;4974071;28;1334;-74
2023/04/15 12:14:44;;;;;;;;;;;19.80;60.80;;;;;;4973301;28;1269;-73
2023/04/15 12:17:12;;;;;;;;;;;19.80;60.90;;;;;;4973244;28;1906;-75
2023/04/15 12:19:38;;;;;;;;;;;19.80;60.90;;;;;;4974834;28;1277;-76
2023/04/15 12:22:05;;;;;;;;;;;19.80;60.90;;;;;;4973420;28;935;-73
2023/04/15 12:24:34;;;;;;;;;;;19.70;60.90;;;;;;4971866;28;1293;-74
2023/04/15 12:27:01;;;;;;;;;;;19.70;61.00;;;;;;4973232;28;1482;-74
2023/04/15 12:29:27;;;;;;;;;;;19.70;61.10;;;;;;4972476;28;1398;-75
2023/04/15 12:31:53;;;;;;;;;;;19.70;61.10;;;;;;4972275;28;1417;-73
2023/04/15 12:34:32;;;;;;;;;;;19.70;61.10;;;;;;4972053;28;1373;-74
2023/04/15 12:36:57;;;;;;;;;;;19.70;61.20;;;;;;4972326;28;1910;-73
2023/04/15 12:39:24;;;;;;;;;;;19.70;61.20;;;;;;4971538;28;1521;-74
2023/04/15 12:41:49;;;;;;;;;;;19.70;61.20;;;;;;4971118;28;1442;-72
2023/04/15 12:44:15;;;;;;;;;;;19.70;62.00;;;;;;4971188;28;1334;-72
2023/04/15 12:46:41;;;;;;;;;;;19.70;61.20;;;;;;4973548;28;1373;-72
2023/04/15 12:49:07;;;;;;;;;;;19.70;61.20;;;;;;4955799;28;1485;-72
2023/04/15 12:51:32;;;;;;;;;;;19.70;62.00;;;;;;4973809;28;1422;-74
2023/04/15 12:53:58;;;;;;;;;;;19.70;61.20;;;;;;4970650;28;1468;-69
2023/04/15 12:56:23;;;;;;;;;;;19.70;61.20;;;;;;4972929;28;1976;-69
2023/04/15 12:58:49;;;;;;;;;;;19.70;61.30;;;;;;4972904;28;1261;-70
2023/04/15 13:01:14;;;;;;;;;;;19.70;61.20;;;;;;4972007;28;1984;-71
2023/04/15 13:03:40;;;;;;;;;;;19.70;61.10;;;;;;4986631;28;1243;-72
2023/04/15 13:06:05;;;;;;;;;;;19.80;61.20;;;;;;4970749;28;1323;-71
2023/04/15 13:08:31;;;;;;;;;;;19.70;61.10;;;;;;4971679;28;1389;-70
2023/04/15 13:10:56;;;;;;;;;;;19.80;61.10;;;;;;4972968;28;877;-71
2023/04/15 13:13:22;;;;;;;;;;;19.80;61.00;;;;;;4971953;28;855;-72
2023/04/15 13:15:47;;;;;;;;;;;19.80;61.00;;;;;;4972434;28;885;-72
2023/04/15 13:18:13;;;;;;;;;;;19.80;61.00;;;;;;4971287;28;1964;-71
2023/04/15 13:20:38;;;;;;;;;;;19.80;61.10;;;;;;4972005;28;888;-72
2023/04/15 13:23:04;;;;;;;;;;;19.80;61.00;;;;;;4971375;28;913;-71
2023/04/15 13:25:29;;;;;;;;;;;19.80;60.90;;;;;;4970852;28;899;-72
2023/04/15 13:27:56;;;;;;;;;;;19.80;61.00;;;;;;4972216;28;1275;-72
2023/04/15 13:30:21;;;;;;;;;;;19.80;61.00;;;;;;4972213;28;919;-72
2023/04/15 13:32:48;;;;;;;;;;;19.80;61.00;;;;;;4972606;28;883;-72
2023/04/15 13:35:13;;;;;;;;;;;19.80;61.00;;;;;;4971467;28;974;-72
2023/04/15 13:37:39;;;;;;;;;;;19.80;61.00;;;;;;4972066;28;1910;-72
2023/04/15 13:40:06;;;;;;;;;;;19.80;61.80;;;;;;4971261;28;1625;-72
2023/04/15 13:42:31;;;;;;;;;;;19.80;61.20;;;;;;4971530;28;884;-71
2023/04/15 13:44:57;;;;;;;;;;;19.80;61.10;;;;;;4966078;28;1353;-72
2023/04/15 13:47:22;;;;;;;;;;;19.70;61.10;;;;;;4972126;28;954;-72
2023/04/15 13:49:48;;;;;;;;;;;19.80;61.30;;;;;;4972199;28;1222;-72
2023/04/15 13:52:13;;;;;;;;;;;19.80;61.30;;;;;;4972183;28;1394;-72
2023/04/15 13:54:39;;;;;;;;;;;19.70;61.20;;;;;;4972538;28;1338;-72
2023/04/15 13:57:04;;;;;;;;;;;19.70;61.30;;;;;;4954108;28;1902;-73
2023/04/15 13:59:30;;;;;;;;;;;19.70;61.30;;;;;;4972014;28;1261;-72
2023/04/15 14:01:55;;;;;;;;;;;19.70;61.40;;;;;;4970978;28;947;-72
2023/04/15 14:04:21;;;;;;;;;;;19.70;61.40;;;;;;4972155;28;855;-72
2023/04/15 14:06:46;;;;;;;;;;;19.70;61.50;;;;;;4972356;28;843;-73
2023/04/15 14:09:12;;;;;;;;;;;19.70;61.50;;;;;;4970611;28;1251;-72
2023/04/15 14:11:37;;;;;;;;;;;19.70;61.60;;;;;;4971295;28;841;-72
2023/04/15 14:14:03;;;;;;;;;;;19.60;61.60;;;;;;4972656;28;868;-72
2023/04/15 14:16:28;;;;;;;;;;;19.60;61.60;;;;;;4984674;28;1867;-74
2023/04/15 14:18:56;;;;;;;;;;;19.60;61.70;;;;;;4972286;28;1249;-71
2023/04/15 14:21:22;;;;;;;;;;;19.60;61.70;;;;;;4971410;28;907;-72
2023/04/15 14:23:47;;;;;;;;;;;19.60;61.70;;;;;;4970987;28;864;-72
2023/04/15 14:26:13;;;;;;;;;;;19.60;61.80;;;;;;4971639;28;829;-71
2023/04/15 14:28:39;;;;;;;;;;;19.60;61.90;;;;;;4971093;28;1264;-72